createdAt,value
2024-03-30T00:01:29.660Z,11.4
2024-03-30T00:06:39.910Z,11.6
2024-03-30T00:11:39.831Z,11.8
2024-03-30T00:16:39.953Z,11.8
2024-03-30T00:22:29.469Z,11.9
2024-03-30T00:27:29.658Z,11.8
2024-03-30T00:32:29.668Z,11.7
2024-03-30T00:37:29.811Z,11.6
2024-03-30T00:42:47.171Z,11.3
2024-03-30T00:47:46.902Z,11.3
2024-03-30T00:53:29.656Z,11.2
2024-03-30T00:58:29.687Z,11.1
2024-03-30T01:03:39.940Z,11
2024-03-30T01:08:39.949Z,11.1
2024-03-30T01:13:39.933Z,11.1
2024-03-30T01:18:40.050Z,11.2
2024-03-30T01:24:29.675Z,10.9
2024-03-30T01:29:29.707Z,11
2024-03-30T01:34:39.933Z,11.1
2024-03-30T01:39:39.944Z,11
2024-03-30T01:44:39.958Z,10.9
2024-03-30T01:50:29.685Z,10.8
2024-03-30T01:55:34.147Z,11
2024-03-30T02:00:39.942Z,10.9
2024-03-30T02:05:39.980Z,10.9
2024-03-30T02:11:29.683Z,11
2024-03-30T02:16:39.939Z,11
2024-03-30T02:22:29.440Z,10.5
2024-03-30T02:27:29.721Z,10.5
2024-03-30T02:32:29.835Z,10.5
2024-03-30T02:37:39.707Z,10.6
2024-03-30T02:42:39.804Z,10.6
2024-03-30T02:48:29.531Z,10.4
2024-03-30T02:53:39.742Z,10.7
2024-03-30T02:58:39.743Z,10.7
2024-03-30T03:03:40.227Z,10.8
2024-03-30T03:09:29.476Z,10.7
2024-03-30T03:14:39.932Z,10.7
2024-03-30T03:20:29.472Z,10.8
2024-03-30T03:25:40.378Z,10.7
2024-03-30T03:31:29.473Z,10.7
2024-03-30T03:36:29.493Z,10.7
2024-03-30T03:41:29.493Z,10.7
2024-03-30T03:46:29.601Z,10.7
2024-03-30T03:51:29.677Z,10.8
2024-03-30T04:02:29.770Z,10.9
2024-03-30T04:07:39.962Z,10.9
2024-03-30T04:13:39.760Z,11
2024-03-30T04:19:29.716Z,11
2024-03-30T04:24:39.762Z,11
2024-03-30T04:29:39.921Z,10.9
2024-03-30T04:35:29.710Z,11.1
2024-03-30T04:40:39.939Z,11.1
2024-03-30T04:46:29.700Z,11.1
2024-03-30T04:51:39.719Z,11.1
2024-03-30T04:56:39.965Z,11.2
2024-03-30T05:02:29.509Z,11.2
2024-03-30T05:07:29.682Z,11.2
2024-03-30T05:12:29.708Z,11.4
2024-03-30T05:17:29.712Z,11.5
2024-03-30T05:22:39.990Z,11.5
2024-03-30T05:27:39.984Z,11.6
2024-03-30T05:32:40.030Z,11.7
2024-03-30T05:38:29.661Z,11.8
2024-03-30T05:43:39.970Z,11.7
2024-03-30T05:49:29.436Z,11.9
2024-03-30T05:54:29.717Z,12
2024-03-30T05:59:39.975Z,12.1
2024-03-30T06:04:39.984Z,12.2
2024-03-30T06:10:29.678Z,12.3
2024-03-30T06:15:39.782Z,12.4
2024-03-30T06:20:39.966Z,12.5
2024-03-30T06:26:29.475Z,12.8
2024-03-30T06:36:29.696Z,12.9
2024-03-30T06:41:29.694Z,13
2024-03-30T06:46:39.767Z,13.1
2024-03-30T06:51:39.949Z,13
2024-03-30T06:56:40.080Z,13
2024-03-30T07:02:29.532Z,13
2024-03-30T07:07:39.952Z,13.2
2024-03-30T07:12:39.960Z,13.3
2024-03-30T07:17:39.960Z,13.5
2024-03-30T07:23:29.712Z,13.7
2024-03-30T07:28:39.961Z,13.9
2024-03-30T07:34:29.676Z,14
2024-03-30T07:39:29.698Z,14.2
2024-03-30T07:44:39.970Z,13.9
2024-03-30T07:49:39.968Z,14
2024-03-30T07:55:29.684Z,14.5
2024-03-30T08:00:29.725Z,14.9
2024-03-30T08:05:29.703Z,15.1
2024-03-30T08:10:40.028Z,15.2
2024-03-30T08:15:40.261Z,15.6
2024-03-30T08:21:29.693Z,15.9
2024-03-30T08:26:36.384Z,16.3
2024-03-30T08:31:39.734Z,16
2024-03-30T08:36:39.770Z,16.6
2024-03-30T08:42:29.506Z,16.5
2024-03-30T08:47:40.062Z,17.2
2024-03-30T08:53:29.539Z,17.8
2024-03-30T08:58:29.545Z,18
2024-03-30T09:03:39.755Z,18.4
2024-03-30T09:09:31.466Z,18.8
2024-03-30T09:14:29.512Z,18.6
2024-03-30T09:19:39.796Z,18.6
2024-03-30T09:25:29.499Z,18.6
2024-03-30T09:30:39.789Z,18
2024-03-30T09:35:39.860Z,18.2
2024-03-30T09:41:29.505Z,18.2
2024-03-30T09:46:29.590Z,18.9
2024-03-30T09:51:39.742Z,18.8
2024-03-30T09:56:39.811Z,18.8
2024-03-30T10:01:39.877Z,19.2
2024-03-30T10:06:39.880Z,19.4
2024-03-30T10:12:29.543Z,19.3
2024-03-30T10:17:29.839Z,19
2024-03-30T10:22:39.988Z,19.3
2024-03-30T10:28:29.724Z,19.4
2024-03-30T10:33:39.997Z,19.5
2024-03-30T10:39:29.496Z,19.3
2024-03-30T10:44:29.715Z,18.8
2024-03-30T10:49:40.023Z,18.9
2024-03-30T10:55:29.719Z,18.9
2024-03-30T11:06:29.748Z,18.7
2024-03-30T11:11:39.989Z,18.4
2024-03-30T11:16:40.019Z,18.2
2024-03-30T11:22:29.558Z,18
2024-03-30T11:28:29.533Z,18
2024-03-30T11:33:29.761Z,18.1
2024-03-30T11:38:41.657Z,18.3
2024-03-30T11:43:39.807Z,18.4
2024-03-30T11:48:40.023Z,18.2
2024-03-30T11:54:29.723Z,18.5
2024-03-30T11:59:40.054Z,18.6
2024-03-30T12:05:29.520Z,18.3
2024-03-30T12:11:40.055Z,18.3
2024-03-30T12:17:29.780Z,18.3
2024-03-30T12:22:39.816Z,18.5
2024-03-30T12:27:40.048Z,18.6
2024-03-30T12:33:29.750Z,18.3
2024-03-30T12:38:29.802Z,18.5
2024-03-30T12:43:39.825Z,18.6
2024-03-30T12:49:29.812Z,18.6
2024-03-30T12:54:39.888Z,18.4
2024-03-30T12:59:40.168Z,18.9
2024-03-30T13:05:29.747Z,19.3
2024-03-30T13:10:29.844Z,19.7
2024-03-30T13:15:40.042Z,18.8
2024-03-30T13:20:40.080Z,18.6
2024-03-30T13:26:29.788Z,18.4
2024-03-30T13:31:39.861Z,18.3
2024-03-30T13:41:41.281Z,18.3
2024-03-30T13:46:40.050Z,18.1
2024-03-30T13:52:29.766Z,18.2
2024-03-30T14:02:40.044Z,17.9
2024-03-30T14:08:29.774Z,17.5
2024-03-30T14:13:29.783Z,17.5
2024-03-30T14:18:40.063Z,17.6
2024-03-30T14:23:40.134Z,17.4
2024-03-30T14:29:29.771Z,17.3
2024-03-30T14:34:39.907Z,17.2
2024-03-30T14:39:40.849Z,17.2
2024-03-30T14:45:29.827Z,17
2024-03-30T14:50:29.844Z,17.1
2024-03-30T14:55:29.899Z,17.1
2024-03-30T15:00:40.187Z,16.9
2024-03-30T15:06:30.341Z,16.7
2024-03-30T15:11:29.582Z,16.6
2024-03-30T15:16:39.866Z,16.7
2024-03-30T15:21:39.943Z,16.6
2024-03-30T15:27:29.524Z,16.6
2024-03-30T15:32:29.577Z,16.6
2024-03-30T15:37:29.609Z,16.6
2024-03-30T15:42:39.881Z,16.6
2024-03-30T15:47:40.574Z,16.5
2024-03-30T15:53:29.609Z,16.2
2024-03-30T15:58:29.621Z,16.1
2024-03-30T16:03:39.890Z,16
2024-03-30T16:09:29.802Z,16.1
2024-03-30T16:14:39.924Z,16.1
2024-03-30T16:19:40.076Z,16
2024-03-30T16:24:40.096Z,16
2024-03-30T16:30:29.830Z,16
2024-03-30T16:35:40.069Z,16
2024-03-30T16:40:40.082Z,15.9
2024-03-30T16:45:40.088Z,15.7
2024-03-30T16:50:40.103Z,15.8
2024-03-30T16:55:40.087Z,15.8
2024-03-30T17:01:29.909Z,15.3
2024-03-30T17:06:39.876Z,15.3
2024-03-30T17:11:39.893Z,15.4
2024-03-30T17:17:29.820Z,15.3
2024-03-30T17:22:41.624Z,15.1
2024-03-30T17:28:29.801Z,15
2024-03-30T17:33:29.833Z,15.1
2024-03-30T17:38:39.873Z,15.1
2024-03-30T17:43:40.113Z,15
2024-03-30T17:49:29.800Z,15
2024-03-30T17:54:29.810Z,14.8
2024-03-30T17:59:29.867Z,14.8
2024-03-30T18:04:40.055Z,14.7
2024-03-30T18:09:40.108Z,14.6
2024-03-30T18:14:40.106Z,14.5
2024-03-30T18:19:40.120Z,14.3
2024-03-30T18:25:29.840Z,14.2
2024-03-30T18:30:40.115Z,14.1
2024-03-30T18:36:29.837Z,14
2024-03-30T18:41:29.839Z,13.8
2024-03-30T18:46:40.098Z,13.6
2024-03-30T18:52:29.680Z,13.4
2024-03-30T18:57:29.828Z,13.2
2024-03-30T19:02:39.949Z,13
2024-03-30T19:07:40.105Z,12.7
2024-03-30T19:13:29.639Z,12
2024-03-30T19:18:29.830Z,11.8
2024-03-30T19:23:29.865Z,12
2024-03-30T19:28:39.881Z,12.3
2024-03-30T19:33:40.118Z,12.4
2024-03-30T19:38:40.122Z,12.5
2024-03-30T19:44:29.918Z,12.5
2024-03-30T19:49:40.121Z,12.8
2024-03-30T19:55:29.675Z,12.9
2024-03-30T20:00:29.685Z,12.8
2024-03-30T20:05:29.808Z,12.8
2024-03-30T20:10:29.831Z,12.6
2024-03-30T20:15:39.922Z,12.6
2024-03-30T20:20:40.112Z,12.7
2024-03-30T20:26:29.833Z,12.9
2024-03-30T20:31:40.112Z,12.8
2024-03-30T20:42:29.842Z,12.7
2024-03-30T20:47:40.078Z,12.8
2024-03-30T20:53:29.791Z,12.8
2024-03-30T20:58:29.799Z,12.8
2024-03-30T21:03:40.092Z,12.7
2024-03-30T21:09:29.671Z,12.5
2024-03-30T21:14:39.909Z,12.5
2024-03-30T21:25:29.743Z,12
2024-03-30T21:30:39.932Z,11.8
2024-03-30T21:36:29.613Z,11.7
2024-03-30T21:41:29.600Z,11.7
2024-03-30T21:46:29.642Z,11.5
2024-03-30T21:51:29.729Z,11.3
2024-03-30T22:02:29.580Z,11.2
2024-03-30T22:07:29.666Z,11
2024-03-30T22:12:39.895Z,10.9
2024-03-30T22:17:39.966Z,10.8
2024-03-30T22:22:39.921Z,10.6
2024-03-30T22:27:40.005Z,10.6
2024-03-30T22:32:40.118Z,10.7
2024-03-30T22:38:29.912Z,10.8
2024-03-30T22:43:40.139Z,10.4
2024-03-30T22:49:29.852Z,10.2
2024-03-30T22:54:40.103Z,10
2024-03-30T23:00:29.657Z,9.9
2024-03-30T23:05:29.868Z,9.8
2024-03-30T23:10:40.123Z,9.7
2024-03-30T23:16:29.816Z,9.6
2024-03-30T23:21:29.846Z,9.5
2024-03-30T23:42:29.848Z,9.3
2024-03-30T23:47:40.096Z,9.5
2024-03-30T23:53:29.864Z,9.1
2024-03-30T23:58:39.941Z,9.3
